createdAt,value
2023-05-08T00:00:49.033Z,3.50
2023-05-08T00:03:18.434Z,4.07
2023-05-08T00:05:46.616Z,3.65
2023-05-08T00:08:14.684Z,3.95
2023-05-08T00:10:43.063Z,3.47
2023-05-08T00:13:11.178Z,3.50
2023-05-08T00:15:39.585Z,3.30
2023-05-08T00:18:09.374Z,3.95
2023-05-08T00:20:37.941Z,3.92
2023-05-08T00:23:06.415Z,4.60
2023-05-08T00:25:34.728Z,4.05
2023-05-08T00:28:03.095Z,3.50
2023-05-08T00:30:31.294Z,3.75
2023-05-08T00:32:59.670Z,4.20
2023-05-08T00:35:29.379Z,3.50
2023-05-08T00:37:57.658Z,3.88
2023-05-08T00:40:27.057Z,3.97
2023-05-08T00:42:55.458Z,3.67
2023-05-08T00:45:23.664Z,3.50
2023-05-08T00:47:52.485Z,3.80
2023-05-08T00:50:21.257Z,3.88
2023-05-08T00:52:51.724Z,3.60
2023-05-08T00:55:21.130Z,4.15
2023-05-08T00:57:49.573Z,4.05
2023-05-08T01:00:19.959Z,3.80
2023-05-08T01:02:48.973Z,4.30
2023-05-08T01:05:17.559Z,4.45
2023-05-08T01:07:46.452Z,4.22
2023-05-08T01:10:16.450Z,3.88
2023-05-08T01:12:57.692Z,3.97
2023-05-08T01:15:32.968Z,4.22
2023-05-08T01:18:13.271Z,3.55
2023-05-08T01:20:50.133Z,3.83
2023-05-08T01:23:58.737Z,3.40
2023-05-08T01:27:11.325Z,4.18
2023-05-08T01:30:17.695Z,4.35
2023-05-08T01:32:57.566Z,3.95
2023-05-08T01:35:31.265Z,3.50
2023-05-08T01:38:06.084Z,4.22
2023-05-08T01:40:42.274Z,3.53
2023-05-08T01:43:20.246Z,3.85
2023-05-08T01:45:51.387Z,4.55
2023-05-08T01:48:25.782Z,3.22
2023-05-08T01:50:59.806Z,4.03
2023-05-08T01:56:01.897Z,3.72
2023-05-08T01:58:32.631Z,4.55
2023-05-08T02:01:04.048Z,4.15
2023-05-08T02:03:36.458Z,3.70
2023-05-08T02:06:06.150Z,4.65
2023-05-08T02:08:36.509Z,3.83
2023-05-08T02:11:07.255Z,4.47
2023-05-08T02:13:38.132Z,3.45
2023-05-08T02:16:09.622Z,3.30
2023-05-08T02:18:42.840Z,2.97
2023-05-08T02:21:14.057Z,3.43
2023-05-08T02:23:45.021Z,3.78
2023-05-08T02:26:16.083Z,3.80
2023-05-08T02:28:44.699Z,4.00
2023-05-08T02:31:14.783Z,3.70
2023-05-08T02:33:46.566Z,3.40
2023-05-08T02:36:19.037Z,3.65
2023-05-08T02:38:52.109Z,4.00
2023-05-08T02:41:23.106Z,3.53
2023-05-08T02:43:52.980Z,3.90
2023-05-08T02:46:26.414Z,3.53
2023-05-08T02:49:03.854Z,3.50
2023-05-08T02:51:44.422Z,3.55
2023-05-08T02:54:19.226Z,3.72
2023-05-08T02:56:56.943Z,3.30
2023-05-08T02:59:32.863Z,3.45
2023-05-08T03:02:08.051Z,4.13
2023-05-08T03:04:41.869Z,4.03
2023-05-08T03:07:11.759Z,4.13
2023-05-08T03:09:44.636Z,4.18
2023-05-08T03:12:18.685Z,4.50
2023-05-08T03:17:24.202Z,3.70
2023-05-08T03:20:00.734Z,3.78
2023-05-08T03:22:30.459Z,4.18
2023-05-08T03:25:01.089Z,4.60
2023-05-08T03:27:30.737Z,5.45
2023-05-08T03:30:00.802Z,4.05
2023-05-08T03:32:31.052Z,4.18
2023-05-08T03:35:04.096Z,4.57
2023-05-08T03:37:32.375Z,4.30
2023-05-08T03:40:01.218Z,4.22
2023-05-08T03:42:29.751Z,4.70
2023-05-08T03:44:59.216Z,4.80
2023-05-08T03:47:28.686Z,4.68
2023-05-08T03:49:57.196Z,4.07
2023-05-08T03:52:27.388Z,5.00
2023-05-08T03:54:55.597Z,4.07
2023-05-08T03:57:29.692Z,4.25
2023-05-08T04:02:40.136Z,4.22
2023-05-08T04:05:22.349Z,4.28
2023-05-08T04:07:55.285Z,4.70
2023-05-08T04:10:28.352Z,4.57
2023-05-08T04:13:04.877Z,5.57
2023-05-08T04:15:37.438Z,4.78
2023-05-08T04:18:10.222Z,4.88
2023-05-08T04:20:41.864Z,5.60
2023-05-08T04:23:18.517Z,4.35
2023-05-08T04:25:48.649Z,4.20
2023-05-08T04:28:17.162Z,5.38
2023-05-08T04:30:46.559Z,4.55
2023-05-08T04:33:18.387Z,4.95
2023-05-08T04:35:47.517Z,4.28
2023-05-08T04:38:17.217Z,5.43
2023-05-08T04:40:45.295Z,4.43
2023-05-08T04:43:14.186Z,5.15
2023-05-08T04:45:42.499Z,5.03
2023-05-08T04:48:10.861Z,5.60
2023-05-08T04:50:39.658Z,5.07
2023-05-08T04:53:08.243Z,4.43
2023-05-08T04:55:38.132Z,4.22
2023-05-08T04:58:06.549Z,4.53
2023-05-08T05:00:35.889Z,4.25
2023-05-08T05:03:04.750Z,4.90
2023-05-08T05:05:33.058Z,5.35
2023-05-08T05:08:01.724Z,4.30
2023-05-08T05:10:30.168Z,4.68
2023-05-08T05:13:02.127Z,4.88
2023-05-08T05:15:30.758Z,5.32
2023-05-08T05:17:59.128Z,4.43
2023-05-08T05:20:27.359Z,4.72
2023-05-08T05:22:55.925Z,4.90
2023-05-08T05:25:24.324Z,4.55
2023-05-08T05:27:52.779Z,5.32
2023-05-08T05:30:22.791Z,5.00
2023-05-08T05:32:51.378Z,5.05
2023-05-08T05:35:25.395Z,4.20
2023-05-08T05:37:54.086Z,4.55
2023-05-08T05:40:23.295Z,5.10
2023-05-08T05:42:52.483Z,5.45
2023-05-08T05:45:22.176Z,5.00
2023-05-08T05:47:54.356Z,4.57
2023-05-08T05:50:23.089Z,5.43
2023-05-08T05:52:51.446Z,4.78
2023-05-08T05:55:19.884Z,5.40
2023-05-08T05:57:48.629Z,5.32
2023-05-08T06:00:19.210Z,5.32
2023-05-08T06:02:49.631Z,5.55
2023-05-08T06:05:19.322Z,4.78
2023-05-08T06:07:47.880Z,5.43
2023-05-08T06:10:16.329Z,4.63
2023-05-08T06:12:44.655Z,4.68
2023-05-08T06:15:15.406Z,4.70
2023-05-08T06:17:44.149Z,4.53
2023-05-08T06:20:14.234Z,4.57
2023-05-08T06:22:42.753Z,4.88
2023-05-08T06:25:11.909Z,4.78
2023-05-08T06:27:40.438Z,4.93
2023-05-08T06:30:11.025Z,3.97
2023-05-08T06:32:39.430Z,4.30
2023-05-08T06:35:09.076Z,4.88
2023-05-08T06:37:39.178Z,3.72
2023-05-08T06:40:12.198Z,4.68
2023-05-08T06:42:41.846Z,4.95
2023-05-08T06:45:11.408Z,4.32
2023-05-08T06:47:40.124Z,5.22
2023-05-08T06:50:09.563Z,4.57
2023-05-08T06:52:39.471Z,4.70
2023-05-08T06:55:08.280Z,4.35
2023-05-08T06:57:37.044Z,5.00
2023-05-08T07:00:06.830Z,4.88
2023-05-08T07:02:35.270Z,4.55
2023-05-08T07:05:03.670Z,4.95
2023-05-08T07:07:32.174Z,4.28
2023-05-08T07:10:02.108Z,4.60
2023-05-08T07:12:30.248Z,4.60
2023-05-08T07:14:58.726Z,4.10
2023-05-08T07:17:27.365Z,4.65
2023-05-08T07:19:55.850Z,4.88
2023-05-08T07:22:24.542Z,3.80
2023-05-08T07:24:52.704Z,3.70
2023-05-08T07:27:22.397Z,4.43
2023-05-08T07:29:50.807Z,3.90
2023-05-08T07:32:19.268Z,4.20
2023-05-08T07:34:48.181Z,4.43
2023-05-08T07:37:16.929Z,4.55
2023-05-08T07:39:45.503Z,4.32
2023-05-08T07:42:14.177Z,4.63
2023-05-08T07:44:53.739Z,4.82
2023-05-08T07:47:23.253Z,4.75
2023-05-08T07:49:51.654Z,4.35
2023-05-08T07:52:19.986Z,5.45
2023-05-08T07:54:48.375Z,4.85
2023-05-08T07:57:17.251Z,4.70
2023-05-08T07:59:47.321Z,4.30
2023-05-08T08:02:16.033Z,4.65
2023-05-08T08:04:44.755Z,4.38
2023-05-08T08:07:13.592Z,4.53
2023-05-08T08:09:42.026Z,4.82
2023-05-08T08:12:11.548Z,5.10
2023-05-08T08:14:40.020Z,4.57
2023-05-08T08:17:10.419Z,4.63
2023-05-08T08:19:38.930Z,4.68
2023-05-08T08:22:07.927Z,4.95
2023-05-08T08:24:36.625Z,4.57
2023-05-08T08:27:04.946Z,5.63
2023-05-08T08:29:33.338Z,5.53
2023-05-08T08:32:03.407Z,5.07
2023-05-08T08:34:34.748Z,4.35
2023-05-08T08:37:03.413Z,4.63
2023-05-08T08:39:34.762Z,4.90
2023-05-08T08:42:03.363Z,4.13
2023-05-08T08:44:31.805Z,4.50
2023-05-08T08:47:01.043Z,4.63
2023-05-08T08:49:35.054Z,4.43
2023-05-08T08:54:36.427Z,4.82
2023-05-08T08:57:10.393Z,4.75
2023-05-08T09:02:13.029Z,3.80
2023-05-08T09:04:43.464Z,4.68
2023-05-08T09:07:14.213Z,5.18
2023-05-08T09:09:44.594Z,5.22
2023-05-08T09:12:14.913Z,4.32
2023-05-08T09:14:43.735Z,4.65
2023-05-08T09:17:12.033Z,4.93
2023-05-08T09:19:40.979Z,4.45
2023-05-08T09:22:12.168Z,4.63
2023-05-08T09:24:58.511Z,5.30
2023-05-08T09:27:28.759Z,5.50
2023-05-08T09:30:02.584Z,4.45
2023-05-08T09:32:31.915Z,4.60
2023-05-08T09:35:00.490Z,4.28
2023-05-08T09:37:31.398Z,5.00
2023-05-08T09:40:15.844Z,6.65
2023-05-08T09:42:44.369Z,4.85
2023-05-08T09:45:13.734Z,4.30
2023-05-08T09:47:49.748Z,4.28
2023-05-08T09:50:18.602Z,4.35
2023-05-08T09:52:51.077Z,5.03
2023-05-08T09:55:19.552Z,5.13
2023-05-08T09:57:58.425Z,5.15
2023-05-08T10:00:28.278Z,4.53
2023-05-08T10:02:58.488Z,4.93
2023-05-08T10:05:30.158Z,4.95
2023-05-08T10:08:00.976Z,5.05
2023-05-08T10:10:31.834Z,5.47
2023-05-08T10:13:00.719Z,5.35
2023-05-08T10:15:32.633Z,4.93
2023-05-08T10:18:06.338Z,5.30
2023-05-08T10:20:36.197Z,5.32
2023-05-08T10:23:11.688Z,5.50
2023-05-08T10:25:46.649Z,4.38
2023-05-08T10:28:19.867Z,4.60
2023-05-08T10:30:50.893Z,5.63
2023-05-08T10:33:22.427Z,4.50
2023-05-08T10:35:51.227Z,4.03
2023-05-08T10:38:21.899Z,4.70
2023-05-08T10:40:53.379Z,4.97
2023-05-08T10:43:22.273Z,5.50
2023-05-08T10:45:51.207Z,4.78
2023-05-08T10:48:27.670Z,5.53
2023-05-08T10:51:04.634Z,4.90
2023-05-08T10:53:40.576Z,5.03
2023-05-08T10:56:09.589Z,5.30
2023-05-08T10:58:40.512Z,4.93
2023-05-08T11:01:16.661Z,5.38
2023-05-08T11:03:48.110Z,4.57
2023-05-08T11:06:17.043Z,3.97
2023-05-08T11:08:51.977Z,4.45
2023-05-08T11:11:30.494Z,5.13
2023-05-08T11:14:13.535Z,4.45
2023-05-08T11:17:08.159Z,5.40
2023-05-08T11:19:37.957Z,4.85
2023-05-08T11:22:38.289Z,4.70
2023-05-08T11:25:11.185Z,5.10
2023-05-08T11:28:11.596Z,4.22
2023-05-08T11:30:41.660Z,4.22
2023-05-08T11:33:17.621Z,5.13
2023-05-08T11:35:54.256Z,5.00
2023-05-08T11:38:26.099Z,5.13
2023-05-08T11:41:00.870Z,5.18
2023-05-08T11:44:01.138Z,5.55
2023-05-08T11:46:40.136Z,5.13
2023-05-08T11:49:12.902Z,4.50
2023-05-08T11:51:45.119Z,5.13
2023-05-08T11:54:19.277Z,4.43
2023-05-08T11:56:49.275Z,4.82
2023-05-08T11:59:19.034Z,4.45
2023-05-08T12:02:06.982Z,5.22
2023-05-08T12:04:45.574Z,4.85
2023-05-08T12:07:16.317Z,4.53
2023-05-08T12:09:45.019Z,4.40
2023-05-08T12:12:14.690Z,4.88
2023-05-08T12:14:43.784Z,4.45
2023-05-08T12:17:12.443Z,5.30
2023-05-08T12:19:40.803Z,4.20
2023-05-08T12:22:10.409Z,5.32
2023-05-08T12:24:40.217Z,4.90
2023-05-08T12:27:09.609Z,4.65
2023-05-08T12:29:39.785Z,4.57
2023-05-08T12:32:08.394Z,5.45
2023-05-08T12:34:38.280Z,5.20
2023-05-08T12:37:06.685Z,5.03
2023-05-08T12:39:39.073Z,4.88
2023-05-08T12:42:07.827Z,4.55
2023-05-08T12:44:36.666Z,5.35
2023-05-08T12:47:06.779Z,4.95
2023-05-08T12:49:35.294Z,4.82
2023-05-08T12:52:05.266Z,4.47
2023-05-08T12:54:35.266Z,4.70
2023-05-08T12:57:08.227Z,5.15
2023-05-08T12:59:36.788Z,5.00
2023-05-08T13:02:13.269Z,5.53
2023-05-08T13:04:41.835Z,4.32
2023-05-08T13:07:10.208Z,4.97
2023-05-08T13:09:38.744Z,4.50
2023-05-08T13:12:07.847Z,4.53
2023-05-08T13:14:36.507Z,4.90
2023-05-08T13:17:06.590Z,4.53
2023-05-08T13:19:35.241Z,4.30
2023-05-08T13:22:03.707Z,5.32
2023-05-08T13:24:32.149Z,4.07
2023-05-08T13:27:00.712Z,4.15
2023-05-08T13:29:30.083Z,4.65
2023-05-08T13:31:58.747Z,5.10
2023-05-08T13:34:29.120Z,4.82
2023-05-08T13:36:57.988Z,5.00
2023-05-08T13:39:26.435Z,4.68
2023-05-08T13:41:54.821Z,4.18
2023-05-08T13:44:23.467Z,4.10
2023-05-08T13:46:52.144Z,3.97
2023-05-08T13:49:24.439Z,3.95
2023-05-08T13:51:57.071Z,4.30
2023-05-08T13:54:25.803Z,4.67
2023-05-08T13:56:54.674Z,4.45
2023-05-08T13:59:23.284Z,4.55
2023-05-08T14:01:53.136Z,4.20
2023-05-08T14:04:21.886Z,4.38
2023-05-08T14:06:51.960Z,4.63
2023-05-08T14:09:22.002Z,4.55
2023-05-08T14:11:50.646Z,4.60
2023-05-08T14:14:18.828Z,4.57
2023-05-08T14:16:47.308Z,4.35
2023-05-08T14:19:15.572Z,4.68
2023-05-08T14:21:43.845Z,4.60
2023-05-08T14:24:12.472Z,3.85
2023-05-08T14:26:44.869Z,4.03
2023-05-08T14:29:13.595Z,4.10
2023-05-08T14:31:41.794Z,4.82
2023-05-08T14:34:10.440Z,4.05
2023-05-08T14:36:39.464Z,3.97
2023-05-08T14:39:08.941Z,3.75
2023-05-08T14:41:38.515Z,4.40
2023-05-08T14:44:08.632Z,3.92
2023-05-08T14:46:37.577Z,4.40
2023-05-08T14:49:06.789Z,3.83
2023-05-08T14:51:35.538Z,4.43
2023-05-08T14:54:04.736Z,3.60
2023-05-08T14:56:44.423Z,4.20
2023-05-08T14:59:17.405Z,3.97
2023-05-08T15:01:45.946Z,4.03
2023-05-08T15:04:15.086Z,4.07
2023-05-08T15:06:43.341Z,4.05
2023-05-08T15:09:11.998Z,3.95
2023-05-08T15:11:40.201Z,4.07
2023-05-08T15:14:08.811Z,4.07
2023-05-08T15:16:38.842Z,3.50
2023-05-08T15:19:09.980Z,3.92
2023-05-08T15:21:38.434Z,3.38
2023-05-08T15:24:07.663Z,3.75
2023-05-08T15:26:36.744Z,3.70
2023-05-08T15:29:05.842Z,3.72
2023-05-08T15:31:36.403Z,4.10
2023-05-08T15:34:08.928Z,4.28
2023-05-08T15:36:38.361Z,3.70
2023-05-08T15:39:09.605Z,3.92
2023-05-08T15:41:40.129Z,3.72
2023-05-08T15:44:09.532Z,3.40
2023-05-08T15:46:38.153Z,3.90
2023-05-08T15:49:09.060Z,3.13
2023-05-08T15:51:37.858Z,4.00
2023-05-08T15:54:06.488Z,3.83
2023-05-08T15:56:36.125Z,3.28
2023-05-08T15:59:05.253Z,3.08
2023-05-08T16:01:33.896Z,3.25
2023-05-08T16:04:02.236Z,3.00
2023-05-08T16:06:33.481Z,3.35
2023-05-08T16:09:02.532Z,3.63
2023-05-08T16:11:32.506Z,3.20
2023-05-08T16:14:02.426Z,2.95
2023-05-08T16:16:31.167Z,3.05
2023-05-08T16:18:59.664Z,2.90
2023-05-08T16:21:28.151Z,3.00
2023-05-08T16:23:58.182Z,3.03
2023-05-08T16:26:27.362Z,2.90
2023-05-08T16:28:56.277Z,2.97
2023-05-08T16:31:24.997Z,2.78
2023-05-08T16:33:56.766Z,2.70
2023-05-08T16:36:27.309Z,2.80
2023-05-08T16:38:56.510Z,2.90
2023-05-08T16:41:28.044Z,2.90
2023-05-08T16:43:56.718Z,2.90
2023-05-08T16:46:29.843Z,3.25
2023-05-08T16:51:28.266Z,2.65
2023-05-08T16:53:57.997Z,3.00
2023-05-08T16:56:28.681Z,2.92
2023-05-08T16:58:58.480Z,2.60
2023-05-08T17:01:26.948Z,3.67
2023-05-08T17:03:56.572Z,3.85
2023-05-08T17:06:25.387Z,2.85
2023-05-08T17:08:58.259Z,3.00
2023-05-08T17:11:27.967Z,3.35
2023-05-08T17:13:56.600Z,2.83
2023-05-08T17:16:25.837Z,3.35
2023-05-08T17:18:54.878Z,2.53
2023-05-08T17:21:24.202Z,2.88
2023-05-08T17:23:52.405Z,2.72
2023-05-08T17:26:21.893Z,3.00
2023-05-08T17:28:51.799Z,3.17
2023-05-08T17:31:20.700Z,2.97
2023-05-08T17:33:49.468Z,3.08
2023-05-08T17:36:17.910Z,2.80
2023-05-08T17:38:47.532Z,3.10
2023-05-08T17:41:16.585Z,2.90
2023-05-08T17:43:45.849Z,2.83
2023-05-08T17:46:15.870Z,2.88
2023-05-08T17:48:44.159Z,3.72
2023-05-08T17:51:14.039Z,3.03
2023-05-08T17:53:44.105Z,2.58
2023-05-08T17:56:13.005Z,2.80
2023-05-08T17:58:41.285Z,2.50
2023-05-08T18:01:09.716Z,2.92
2023-05-08T18:03:39.505Z,2.53
2023-05-08T18:06:08.628Z,2.70
2023-05-08T18:08:36.836Z,2.72
2023-05-08T18:11:05.309Z,2.70
2023-05-08T18:13:34.965Z,2.67
2023-05-08T18:16:03.386Z,2.67
2023-05-08T18:18:31.930Z,2.70
2023-05-08T18:21:01.712Z,2.97
2023-05-08T18:23:30.200Z,3.05
2023-05-08T18:25:58.380Z,2.85
2023-05-08T18:28:27.006Z,3.15
2023-05-08T18:30:55.533Z,2.75
2023-05-08T18:33:23.788Z,2.58
2023-05-08T18:35:52.667Z,2.40
2023-05-08T18:38:22.635Z,2.97
2023-05-08T18:40:50.877Z,3.08
2023-05-08T18:43:19.296Z,2.67
2023-05-08T18:45:47.844Z,3.30
2023-05-08T18:48:17.196Z,2.72
2023-05-08T18:50:45.336Z,3.05
2023-05-08T18:53:14.900Z,2.72
2023-05-08T18:55:45.723Z,2.72
2023-05-08T18:58:14.411Z,2.90
2023-05-08T19:00:43.196Z,2.50
2023-05-08T19:03:11.796Z,2.47
2023-05-08T19:05:40.266Z,2.55
2023-05-08T19:08:08.949Z,2.85
2023-05-08T19:10:37.218Z,3.00
2023-05-08T19:13:07.227Z,3.10
2023-05-08T19:15:35.644Z,2.47
2023-05-08T19:18:04.756Z,2.78
2023-05-08T19:20:32.965Z,2.60
2023-05-08T19:23:01.098Z,2.85
2023-05-08T19:25:29.227Z,2.67
2023-05-08T19:27:58.756Z,2.97
2023-05-08T19:30:28.519Z,2.38
2023-05-08T19:32:56.802Z,2.90
2023-05-08T19:35:25.304Z,2.60
2023-05-08T19:37:53.846Z,2.92
2023-05-08T19:40:23.201Z,3.05
2023-05-08T19:42:52.490Z,2.67
2023-05-08T19:45:20.986Z,2.70
2023-05-08T19:47:50.718Z,2.75
2023-05-08T19:50:19.053Z,2.80
2023-05-08T19:52:48.812Z,2.60
2023-05-08T19:55:17.806Z,2.97
2023-05-08T19:57:46.177Z,2.92
2023-05-08T20:00:14.975Z,2.63
2023-05-08T20:02:43.821Z,2.90
2023-05-08T20:05:22.418Z,2.55
2023-05-08T20:07:51.833Z,2.40
2023-05-08T20:10:20.155Z,2.97
2023-05-08T20:12:48.467Z,2.67
2023-05-08T20:15:16.493Z,3.10
2023-05-08T20:17:45.088Z,2.90
2023-05-08T20:20:15.110Z,2.70
2023-05-08T20:22:43.998Z,3.20
2023-05-08T20:25:12.142Z,2.83
2023-05-08T20:27:40.401Z,2.78
2023-05-08T20:30:09.892Z,2.90
2023-05-08T20:32:38.386Z,3.15
2023-05-08T20:35:08.538Z,3.30
2023-05-08T20:37:44.680Z,3.22
2023-05-08T20:40:14.000Z,3.05
2023-05-08T20:42:42.551Z,3.00
2023-05-08T20:45:12.041Z,3.25
2023-05-08T20:47:41.530Z,2.72
2023-05-08T20:50:11.198Z,2.88
2023-05-08T20:52:42.565Z,3.05
2023-05-08T20:55:11.762Z,3.00
2023-05-08T20:57:40.236Z,3.45
2023-05-08T21:00:09.855Z,3.33
2023-05-08T21:02:40.283Z,3.50
2023-05-08T21:05:11.568Z,3.35
2023-05-08T21:07:42.513Z,3.10
2023-05-08T21:10:11.676Z,2.88
2023-05-08T21:12:40.288Z,3.60
2023-05-08T21:15:09.539Z,2.90
2023-05-08T21:17:37.835Z,3.10
2023-05-08T21:20:07.185Z,3.25
2023-05-08T21:22:35.400Z,3.28
2023-05-08T21:25:05.588Z,3.08
2023-05-08T21:27:33.891Z,3.05
2023-05-08T21:30:02.410Z,3.03
2023-05-08T21:32:30.816Z,3.13
2023-05-08T21:34:58.977Z,2.70
2023-05-08T21:37:27.571Z,3.25
2023-05-08T21:39:55.615Z,3.22
2023-05-08T21:42:25.065Z,3.03
2023-05-08T21:44:56.154Z,3.08
2023-05-08T21:47:27.444Z,3.67
2023-05-08T21:49:56.153Z,3.13
2023-05-08T21:52:26.108Z,3.33
2023-05-08T21:54:54.415Z,2.92
2023-05-08T21:57:22.627Z,3.05
2023-05-08T21:59:52.115Z,3.08
2023-05-08T22:02:21.172Z,4.03
2023-05-08T22:04:49.286Z,3.22
2023-05-08T22:07:19.632Z,3.67
2023-05-08T22:09:47.820Z,3.47
2023-05-08T22:12:16.060Z,3.30
2023-05-08T22:14:44.422Z,2.85
2023-05-08T22:17:13.863Z,3.55
2023-05-08T22:19:41.955Z,3.60
2023-05-08T22:22:10.089Z,3.42
2023-05-08T22:24:38.162Z,3.17
2023-05-08T22:27:06.635Z,3.53
2023-05-08T22:29:34.690Z,3.17
2023-05-08T22:32:03.497Z,3.45
2023-05-08T22:34:33.607Z,3.88
2023-05-08T22:37:02.126Z,3.42
2023-05-08T22:39:30.243Z,3.20
2023-05-08T22:41:58.421Z,3.55
2023-05-08T22:44:26.884Z,3.38
2023-05-08T22:46:55.306Z,2.90
2023-05-08T22:49:23.533Z,3.22
2023-05-08T22:51:53.473Z,3.33
2023-05-08T22:54:21.682Z,3.60
2023-05-08T22:56:50.076Z,3.28
2023-05-08T22:59:18.131Z,3.30
2023-05-08T23:01:46.231Z,3.42
2023-05-08T23:04:14.553Z,3.83
2023-05-08T23:06:43.315Z,3.30
2023-05-08T23:09:13.482Z,3.15
2023-05-08T23:11:41.774Z,3.47
2023-05-08T23:14:10.096Z,3.55
2023-05-08T23:16:38.161Z,3.33
2023-05-08T23:19:07.445Z,4.72
2023-05-08T23:21:35.758Z,3.30
2023-05-08T23:24:03.998Z,2.85
2023-05-08T23:26:33.569Z,3.75
2023-05-08T23:29:02.807Z,3.97
2023-05-08T23:31:31.206Z,3.50
2023-05-08T23:33:59.358Z,3.65
2023-05-08T23:36:28.160Z,3.50
2023-05-08T23:38:56.744Z,4.07
2023-05-08T23:41:26.046Z,3.33
2023-05-08T23:43:56.120Z,4.05
2023-05-08T23:46:24.465Z,3.60
2023-05-08T23:48:52.645Z,3.60
2023-05-08T23:51:20.981Z,4.30
2023-05-08T23:53:50.259Z,3.47
2023-05-08T23:56:18.442Z,3.83
2023-05-08T23:58:46.788Z,3.58
